WEATHER DATA

TODAY
Time Temp. Dewp. Hum. Bar. 1h Prec. 24h Prec.
00:06 5.7 5.7 100 1005.7 0.0000 0.0000
00:17 5.7 5.7 100 1005.7 0.0000 0.0000
00:27 5.6 5.6 100 1005.6 0.0000 0.0000
00:37 5.6 5.6 100 1005.6 0.0000 0.0000
00:47 5.7 5.7 100 1005.4 0.0000 0.0000
00:58 5.7 5.7 100 1005.3 0.0000 0.0000
01:07 5.7 5.7 100 1005.3 0.0000 0.0000
01:17 5.7 5.7 100 1005.3 0.0000 0.0000
01:28 5.8 5.8 100 1005.3 0.0000 0.0000
01:38 5.8 5.8 100 1005.1 0.3030 0.3000
01:48 5.8 5.8 100 1004.8 0.6060 0.6000
01:58 5.8 5.8 100 1004.7 0.8080 0.8000
02:09 5.8 5.8 100 1004.5 1.0100 1.0000
02:18 5.8 5.8 100 1004.3 1.0100 1.0000
02:28 5.8 5.8 100 1004.2 0.9090 1.1000
02:38 5.8 5.8 100 1003.9 0.7070 1.2000
02:49 5.7 5.7 100 1003.7 0.5050 1.3000
02:59 5.7 5.7 100 1003.6 0.4040 1.3000
03:09 5.7 5.7 100 1003.4 0.4040 1.4000
03:19 5.5 5.5 100 1003.3 0.4040 1.4000
03:29 5.5 5.5 100 1003.2 0.3030 1.4000
03:39 5.4 5.4 100 1003 0.3030 1.5000
03:49 5.4 5.4 100 1002.8 0.3030 1.6000
04:00 5.3 5.3 100 1002.7 0.3030 1.7000
04:10 5.3 5.3 100 1002.4 0.3030 1.7000
04:20 5.3 5.3 100 1002.3 0.3030 1.7000
04:30 5.4 5.4 100 1002.2 0.2020 1.7000
04:40 5.4 5.4 100 1002.1 0.1010 1.7000
04:50 5.4 5.4 100 1002.1 0.1010 1.7000
05:00 5.4 5.4 100 1002 0.0000 1.7000
05:11 5.4 5.4 100 1001.8 0.0000 1.7000
05:21 5.4 5.4 100 1001.8 0.0000 1.7000
05:30 5.4 5.4 100 1001.6 0.0000 1.7000
05:40 5.4 5.4 100 1001.6 0.0000 1.7000
05:51 5.4 5.4 100 1001.4 0.0000 1.7000
06:01 5.4 5.4 100 1001.2 0.0000 1.7000
06:11 5.4 5.4 100 1001.1 0.0000 1.7000
06:21 5.3 5.3 100 1000.9 0.0000 1.7000
06:32 5.3 5.3 100 1000.9 0.0000 1.7000
06:41 5.3 5.3 100 1000.8 0.0000 1.7000
06:51 5.3 5.3 100 1000.8 0.0000 1.7000
07:02 5.3 5.3 100 1000.8 0.0000 1.7000
07:12 5.3 5.3 100 1000.7 0.0000 1.7000
07:22 5.3 5.3 100 1000.6 0.0000 1.7000
07:32 5.3 5.3 100 1000.6 0.0000 1.7000
07:43 5.3 5.3 100 1000.5 0.0000 1.7000
07:52 5.3 5.3 100 1000.5 0.0000 1.7000
08:02 5.3 5.3 100 1000.4 0.0000 1.7000
08:13 5.3 5.3 100 1000.3 0.0000 1.7000
08:23 5.3 5.3 100 1000.3 0.0000 1.7000
08:33 5.3 5.3 100 1000.3 0.0000 1.7000
08:43 5.3 5.3 100 1000.1 0.0000 1.7000
08:53 5.3 5.3 100 1000.1 0.0000 1.7000
09:03 5.3 5.3 100 1000 0.0000 1.7000
09:13 5.4 5.4 100 999.9 0.0000 1.7000
09:23 5.4 5.4 100 999.9 0.0000 1.7000
09:34 5.4 5.4 100 999.9 0.3030 2.0000
09:44 5.4 5.4 100 999.8 0.3030 2.0000
09:54 5.5 5.5 100 999.7 0.3030 2.0000
10:04 5.5 5.5 100 999.6 0.6060 2.3000
10:14 5.5 5.5 100 999.4 0.7070 2.4000
10:24 5.4 5.4 100 999.4 0.7070 2.4000
10:34 5.5 5.5 100 999.4 0.5050 2.5000
10:45 5.5 5.5 100 999.3 0.6060 2.6000
10:55 5.6 5.6 100 999.2 0.7070 2.7000
11:04 5.7 5.7 100 999.1 0.4040 2.7000
11:15 5.7 5.7 100 999.1 0.3030 2.7000
11:25 5.8 5.8 100 999.2 0.3030 2.7000
11:35 5.8 5.8 100 999 0.2020 2.7000
11:45 5.8 5.8 100 998.9 0.1010 2.7000
11:56 5.8 5.8 100 998.9 0.0000 2.7000
12:06 5.9 5.9 100 998.8 0.0000 2.7000
12:15 6 6 100 998.6 0.0000 2.7000
12:25 6 6 100 998.6 0.0000 2.7000
12:36 5.9 5.9 100 998.6 0.0000 2.7000
12:46 6 6 100 998.6 0.0000 2.7000
12:56 6.1 6.1 100 998.6 0.0000 2.7000
13:07 6.1 6.1 100 998.5 0.0000 2.7000
13:17 6.1 6.1 100 998.5 0.0000 2.7000
13:26 6.2 6.2 100 998.3 0.0000 2.7000
13:36 6.2 6.2 100 998.3 0.0000 2.7000
13:47 6.2 6.2 100 998.4 0.0000 2.7000
13:57 6.3 6.3 100 998.3 0.0000 2.7000
14:07 6.3 6.3 100 998.3 0.0000 2.7000
14:17 6.3 6.3 100 998.3 0.0000 2.7000
14:27 6.2 6.2 100 998.4 0.0000 2.7000
14:37 6.2 6.2 100 998.3 0.0000 2.7000
14:47 6.1 6.1 100 998.4 0.0000 2.7000
14:58 6.1 6.1 100 998.4 0.0000 2.7000
15:08 6.1 6.1 100 998.3 0.0000 2.7000
15:17 6 6 100 998.4 0.0000 2.7000
15:27 6 6 100 998.5 0.0000 2.7000
15:38 6 6 100 998.5 0.0000 2.7000
15:48 6 6 100 998.5 0.0000 2.7000
15:58 6 6 100 998.5 0.0000 2.7000
16:08 6 6 100 998.5 0.0000 2.7000
16:18 5.9 5.9 100 998.5 0.0000 2.7000
16:28 5.9 5.9 100 998.6 0.0000 2.7000
16:38 5.8 5.8 100 998.5 0.0000 2.7000
16:49 5.7 5.7 100 998.6 0.0000 2.7000
16:59 5.7 5.7 100 998.5 0.0000 2.7000
17:09 5.7 5.7 100 998.6 0.0000 2.7000
17:19 5.7 5.7 100 998.7 0.0000 2.7000
17:29 5.6 5.6 100 998.6 0.0000 2.7000

DAY STATISTIC

2019-02-19
TEMPERATURE
AVERAGE
5.7
HIGH
6.3
13:57
LOW
5.3
04:00
PRESSURE
AVERAGE
1000.8
HIGH
1005.7
00:06
LOW
998.3
13:26
DEWPOINT
AVERAGE
5.7
HIGH
6.3
13:57
LOW
5.3
04:00
HUMIDITY
AVERAGE
100
HIGH
100
00:06
LOW
100
00:06
PRECIPITATION
RAIN HOUR
1.0
RAIN DAY
2.7
TEMPERATURE (°C)
LOW
5.3
HIGH
6.3
AVERAGE
5.7
PRESSURE (hpa)
LOW
998.3
HIGH
1005.7
AVERAGE
1000.8
DEVICE